<?xml version="1.0" encoding="UTF-8" standalone="no" ?>
<gpx xmlns="http://www.topografix.com/GPX/1/1" xmlns:xsi="http://www.w3.org/2001/XMLSchema-instance" xsi:schemaLocation="http://www.topografix.com/GPX/1/1 http://www.topografix.com/GPX/1/1/gpx.xsd" version="1.1" creator="VisuGPX - https://www.visugpx.com">
  <metadata>
    <name>2026-08-30 mont Lozère</name>
    <desc><![CDATA[Départ depuis le col de Finiels
Petite boucle pour aller au sommet du Mont Lozère (Sommet de Finiels).
Comme toujours le spectacle est merveilleux surtout quand le temps est dégagé.
Possibilité de rallonger le circuit en prenant le GR70 qui mène à la station puis remonter au col de Finiels par la draille du Languedoc. il faut prévoir 1.5 km de plus environ.]]></desc>
  </metadata>
  <wpt lat="44.42379" lon="3.76875">
    <ele>1544.2</ele>
    <name><![CDATA[]]></name>
    <type><![CDATA[Point de départ]]></type>
  </wpt>
  <wpt lat="44.424" lon="3.76855">
    <ele>1543.4</ele>
    <name><![CDATA[]]></name>
    <desc><![CDATA[<p><br /><h3>Nom: Segment: 1</h3><br />Type: Marche<br/>Heure de départ: 12:19 30 août 2026<br/>Heure d'arrivée: 15:09 30 août 2026<br/>Distance: 6,8km (02:49)<br/>Temps déplacement: 01:56<br/>Vitesse moyenne: 2,41 km/h<br/>Vitesse en mouvement: 3,53 km/h<br/>Vitesse Max.: 6,02 km/h<br/>Altitude minimale: 1542 m<br/>Altitude maximale: 1697 m<br/>Vitesse de montée: 152,5 m/h<br/>Vitesse de descente: 224,5 m/h<br/>Dénivelé positif: 148 m<br/>Dénivelé négatif: 149 m<br/>Temps de montée: 00:58<br/>Temps de descente: 00:39<br/></p>]]></desc>
    <type><![CDATA[Point d'arrivée]]></type>
  </wpt>
  <trk>
    <name><![CDATA[2026-08-30 mont Lozère ]]></name>
    <desc><![CDATA[<p>Type: Marche<br/>Heure de départ: 12:19 30 août 2026<br/>Heure d'arrivée: 15:09 30 août 2026<br/>Distance: 6,8 km (02:49)<br/>Temps déplacement: 01:53<br/>Vitesse moyenne: 2,41 km/h<br/>Vitesse en mouvement: 3,63 km/h<br/>Vitesse Max.: 6,02 km/h<br/>Altitude minimale: 1542 m<br/>Altitude maximale: 1697 m<br/>Vitesse de montée: 151,6 m/h<br/>Vitesse de descente: 226,2 m/h<br/>Dénivelé positif: 155 m<br/>Dénivelé négatif: 157 m<br/>Temps de montée: 01:01<br/>Temps de descente: 00:41<br/></p><hr align="center" width="480" style="height: 2px; width: 517px"/>]]></desc>
    <trkseg>
      <trkpt lat="44.42379" lon="3.76875">
        <ele>1544.2</ele>
        <time>2026-08-30T10:19:48.003Z</time>
      </trkpt>
      <trkpt lat="44.42378" lon="3.76849">
        <ele>1545.4</ele>
        <time>2026-08-30T10:20:16.000Z</time>
      </trkpt>
      <trkpt lat="44.42361" lon="3.76839">
        <ele>1547.6</ele>
        <time>2026-08-30T10:20:39.000Z</time>
      </trkpt>
      <trkpt lat="44.42343" lon="3.76847">
        <ele>1548.3</ele>
        <time>2026-08-30T10:20:53.000Z</time>
      </trkpt>
      <trkpt lat="44.42325" lon="3.76853">
        <ele>1549.2</ele>
        <time>2026-08-30T10:21:17.000Z</time>
      </trkpt>
      <trkpt lat="44.42307" lon="3.76862">
        <ele>1549.8</ele>
        <time>2026-08-30T10:21:36.000Z</time>
      </trkpt>
      <trkpt lat="44.42289" lon="3.76866">
        <ele>1550.2</ele>
        <time>2026-08-30T10:21:58.000Z</time>
      </trkpt>
      <trkpt lat="44.42271" lon="3.7687">
        <ele>1550.8</ele>
        <time>2026-08-30T10:22:17.000Z</time>
      </trkpt>
      <trkpt lat="44.42252" lon="3.76872">
        <ele>1552.1</ele>
        <time>2026-08-30T10:22:32.000Z</time>
      </trkpt>
      <trkpt lat="44.42234" lon="3.76877">
        <ele>1552.7</ele>
        <time>2026-08-30T10:22:47.000Z</time>
      </trkpt>
      <trkpt lat="44.42215" lon="3.76877">
        <ele>1553.3</ele>
        <time>2026-08-30T10:23:03.000Z</time>
      </trkpt>
      <trkpt lat="44.42197" lon="3.76872">
        <ele>1553.8</ele>
        <time>2026-08-30T10:23:18.000Z</time>
      </trkpt>
      <trkpt lat="44.42178" lon="3.76871">
        <ele>1554.3</ele>
        <time>2026-08-30T10:23:36.000Z</time>
      </trkpt>
      <trkpt lat="44.4216" lon="3.76868">
        <ele>1555</ele>
        <time>2026-08-30T10:23:53.000Z</time>
      </trkpt>
      <trkpt lat="44.42141" lon="3.76864">
        <ele>1555.5</ele>
        <time>2026-08-30T10:24:11.000Z</time>
      </trkpt>
      <trkpt lat="44.42123" lon="3.76859">
        <ele>1556.9</ele>
        <time>2026-08-30T10:24:29.000Z</time>
      </trkpt>
      <trkpt lat="44.42105" lon="3.76851">
        <ele>1558.4</ele>
        <time>2026-08-30T10:24:46.000Z</time>
      </trkpt>
      <trkpt lat="44.42087" lon="3.76849">
        <ele>1558.7</ele>
        <time>2026-08-30T10:25:02.000Z</time>
      </trkpt>
      <trkpt lat="44.42069" lon="3.76843">
        <ele>1560</ele>
        <time>2026-08-30T10:25:18.000Z</time>
      </trkpt>
      <trkpt lat="44.42051" lon="3.7684">
        <ele>1561.2</ele>
        <time>2026-08-30T10:25:34.000Z</time>
      </trkpt>
      <trkpt lat="44.42033" lon="3.7684">
        <ele>1561.9</ele>
        <time>2026-08-30T10:25:46.000Z</time>
      </trkpt>
      <trkpt lat="44.42015" lon="3.76832">
        <ele>1564.1</ele>
        <time>2026-08-30T10:26:00.000Z</time>
      </trkpt>
      <trkpt lat="44.41996" lon="3.7683">
        <ele>1565.5</ele>
        <time>2026-08-30T10:26:17.000Z</time>
      </trkpt>
      <trkpt lat="44.41978" lon="3.76826">
        <ele>1566.7</ele>
        <time>2026-08-30T10:26:31.000Z</time>
      </trkpt>
      <trkpt lat="44.41961" lon="3.76816">
        <ele>1568.5</ele>
        <time>2026-08-30T10:26:45.000Z</time>
      </trkpt>
      <trkpt lat="44.41942" lon="3.76815">
        <ele>1569.6</ele>
        <time>2026-08-30T10:27:51.000Z</time>
      </trkpt>
      <trkpt lat="44.41925" lon="3.76809">
        <ele>1571</ele>
        <time>2026-08-30T10:28:08.000Z</time>
      </trkpt>
      <trkpt lat="44.41906" lon="3.76806">
        <ele>1571.9</ele>
        <time>2026-08-30T10:28:22.000Z</time>
      </trkpt>
      <trkpt lat="44.41888" lon="3.768">
        <ele>1572.7</ele>
        <time>2026-08-30T10:28:42.000Z</time>
      </trkpt>
      <trkpt lat="44.4187" lon="3.7679">
        <ele>1573.9</ele>
        <time>2026-08-30T10:29:01.000Z</time>
      </trkpt>
      <trkpt lat="44.41856" lon="3.76773">
        <ele>1575.3</ele>
        <time>2026-08-30T10:29:15.000Z</time>
      </trkpt>
      <trkpt lat="44.41843" lon="3.76755">
        <ele>1576.2</ele>
        <time>2026-08-30T10:29:31.000Z</time>
      </trkpt>
      <trkpt lat="44.4183" lon="3.76734">
        <ele>1576.8</ele>
        <time>2026-08-30T10:29:49.000Z</time>
      </trkpt>
      <trkpt lat="44.41825" lon="3.7671">
        <ele>1578</ele>
        <time>2026-08-30T10:30:18.000Z</time>
      </trkpt>
      <trkpt lat="44.4182" lon="3.76686">
        <ele>1579.1</ele>
        <time>2026-08-30T10:30:35.000Z</time>
      </trkpt>
      <trkpt lat="44.41818" lon="3.7666">
        <ele>1580.1</ele>
        <time>2026-08-30T10:30:51.000Z</time>
      </trkpt>
      <trkpt lat="44.41815" lon="3.76635">
        <ele>1581.2</ele>
        <time>2026-08-30T10:31:12.000Z</time>
      </trkpt>
      <trkpt lat="44.41816" lon="3.76609">
        <ele>1582.6</ele>
        <time>2026-08-30T10:31:30.000Z</time>
      </trkpt>
      <trkpt lat="44.41813" lon="3.76583">
        <ele>1583.8</ele>
        <time>2026-08-30T10:31:48.000Z</time>
      </trkpt>
      <trkpt lat="44.41817" lon="3.76557">
        <ele>1585.2</ele>
        <time>2026-08-30T10:32:05.000Z</time>
      </trkpt>
      <trkpt lat="44.41816" lon="3.76531">
        <ele>1586</ele>
        <time>2026-08-30T10:32:22.000Z</time>
      </trkpt>
      <trkpt lat="44.41818" lon="3.76505">
        <ele>1587.2</ele>
        <time>2026-08-30T10:32:52.000Z</time>
      </trkpt>
      <trkpt lat="44.41825" lon="3.7648">
        <ele>1588.6</ele>
        <time>2026-08-30T10:33:08.000Z</time>
      </trkpt>
      <trkpt lat="44.4183" lon="3.76455">
        <ele>1590.1</ele>
        <time>2026-08-30T10:33:25.000Z</time>
      </trkpt>
      <trkpt lat="44.41833" lon="3.7643">
        <ele>1591.5</ele>
        <time>2026-08-30T10:33:41.000Z</time>
      </trkpt>
      <trkpt lat="44.41837" lon="3.76405">
        <ele>1592.8</ele>
        <time>2026-08-30T10:33:56.000Z</time>
      </trkpt>
      <trkpt lat="44.41843" lon="3.76381">
        <ele>1594</ele>
        <time>2026-08-30T10:34:11.000Z</time>
      </trkpt>
      <trkpt lat="44.41849" lon="3.76356">
        <ele>1595.2</ele>
        <time>2026-08-30T10:34:27.000Z</time>
      </trkpt>
      <trkpt lat="44.41856" lon="3.76331">
        <ele>1595.9</ele>
        <time>2026-08-30T10:34:43.000Z</time>
      </trkpt>
      <trkpt lat="44.41864" lon="3.76308">
        <ele>1597</ele>
        <time>2026-08-30T10:35:00.000Z</time>
      </trkpt>
      <trkpt lat="44.41873" lon="3.76285">
        <ele>1598.2</ele>
        <time>2026-08-30T10:35:17.000Z</time>
      </trkpt>
      <trkpt lat="44.41881" lon="3.76261">
        <ele>1599.3</ele>
        <time>2026-08-30T10:35:32.000Z</time>
      </trkpt>
      <trkpt lat="44.41886" lon="3.76236">
        <ele>1600</ele>
        <time>2026-08-30T10:35:51.000Z</time>
      </trkpt>
      <trkpt lat="44.41891" lon="3.76212">
        <ele>1600.4</ele>
        <time>2026-08-30T10:36:08.000Z</time>
      </trkpt>
      <trkpt lat="44.41897" lon="3.76188">
        <ele>1601.2</ele>
        <time>2026-08-30T10:36:23.000Z</time>
      </trkpt>
      <trkpt lat="44.41905" lon="3.76164">
        <ele>1601.5</ele>
        <time>2026-08-30T10:36:39.000Z</time>
      </trkpt>
      <trkpt lat="44.41914" lon="3.76142">
        <ele>1602</ele>
        <time>2026-08-30T10:37:28.000Z</time>
      </trkpt>
      <trkpt lat="44.41917" lon="3.76117">
        <ele>1602.8</ele>
        <time>2026-08-30T10:37:48.000Z</time>
      </trkpt>
      <trkpt lat="44.41919" lon="3.76091">
        <ele>1602.9</ele>
        <time>2026-08-30T10:38:04.000Z</time>
      </trkpt>
      <trkpt lat="44.41924" lon="3.76067">
        <ele>1603.3</ele>
        <time>2026-08-30T10:38:20.000Z</time>
      </trkpt>
      <trkpt lat="44.41926" lon="3.76041">
        <ele>1604.2</ele>
        <time>2026-08-30T10:38:34.000Z</time>
      </trkpt>
      <trkpt lat="44.41929" lon="3.76014">
        <ele>1605.1</ele>
        <time>2026-08-30T10:38:49.000Z</time>
      </trkpt>
      <trkpt lat="44.41931" lon="3.75989">
        <ele>1605.7</ele>
        <time>2026-08-30T10:39:05.000Z</time>
      </trkpt>
      <trkpt lat="44.41934" lon="3.75964">
        <ele>1605.9</ele>
        <time>2026-08-30T10:39:20.000Z</time>
      </trkpt>
      <trkpt lat="44.41931" lon="3.75939">
        <ele>1606.6</ele>
        <time>2026-08-30T10:39:48.000Z</time>
      </trkpt>
      <trkpt lat="44.41933" lon="3.75912">
        <ele>1607.1</ele>
        <time>2026-08-30T10:40:05.000Z</time>
      </trkpt>
      <trkpt lat="44.41933" lon="3.75885">
        <ele>1607.7</ele>
        <time>2026-08-30T10:40:21.000Z</time>
      </trkpt>
      <trkpt lat="44.41934" lon="3.75859">
        <ele>1608.6</ele>
        <time>2026-08-30T10:40:36.000Z</time>
      </trkpt>
      <trkpt lat="44.41935" lon="3.75832">
        <ele>1608.7</ele>
        <time>2026-08-30T10:40:52.000Z</time>
      </trkpt>
      <trkpt lat="44.41937" lon="3.75805">
        <ele>1608.7</ele>
        <time>2026-08-30T10:41:08.000Z</time>
      </trkpt>
      <trkpt lat="44.41934" lon="3.75779">
        <ele>1609.2</ele>
        <time>2026-08-30T10:41:37.000Z</time>
      </trkpt>
      <trkpt lat="44.41935" lon="3.75752">
        <ele>1610.2</ele>
        <time>2026-08-30T10:41:56.000Z</time>
      </trkpt>
      <trkpt lat="44.41937" lon="3.75726">
        <ele>1611.1</ele>
        <time>2026-08-30T10:42:11.000Z</time>
      </trkpt>
      <trkpt lat="44.41937" lon="3.75698">
        <ele>1612.1</ele>
        <time>2026-08-30T10:42:26.000Z</time>
      </trkpt>
      <trkpt lat="44.41937" lon="3.75672">
        <ele>1613</ele>
        <time>2026-08-30T10:42:43.000Z</time>
      </trkpt>
      <trkpt lat="44.41937" lon="3.75645">
        <ele>1614.6</ele>
        <time>2026-08-30T10:43:01.000Z</time>
      </trkpt>
      <trkpt lat="44.41937" lon="3.7562">
        <ele>1615.5</ele>
        <time>2026-08-30T10:43:16.000Z</time>
      </trkpt>
      <trkpt lat="44.41939" lon="3.75594">
        <ele>1616.8</ele>
        <time>2026-08-30T10:43:31.000Z</time>
      </trkpt>
      <trkpt lat="44.41939" lon="3.75567">
        <ele>1617.7</ele>
        <time>2026-08-30T10:43:46.000Z</time>
      </trkpt>
      <trkpt lat="44.41941" lon="3.7554">
        <ele>1618.4</ele>
        <time>2026-08-30T10:44:00.000Z</time>
      </trkpt>
      <trkpt lat="44.41946" lon="3.75514">
        <ele>1618.9</ele>
        <time>2026-08-30T10:45:36.000Z</time>
      </trkpt>
      <trkpt lat="44.4196" lon="3.75497">
        <ele>1620.8</ele>
        <time>2026-08-30T10:45:58.000Z</time>
      </trkpt>
      <trkpt lat="44.41975" lon="3.75482">
        <ele>1621.9</ele>
        <time>2026-08-30T10:46:17.000Z</time>
      </trkpt>
      <trkpt lat="44.41987" lon="3.75464">
        <ele>1621.4</ele>
        <time>2026-08-30T10:46:41.000Z</time>
      </trkpt>
      <trkpt lat="44.42005" lon="3.75456">
        <ele>1623.7</ele>
        <time>2026-08-30T10:47:38.000Z</time>
      </trkpt>
      <trkpt lat="44.42022" lon="3.75446">
        <ele>1624.9</ele>
        <time>2026-08-30T10:47:54.000Z</time>
      </trkpt>
      <trkpt lat="44.42037" lon="3.75433">
        <ele>1625.9</ele>
        <time>2026-08-30T10:48:12.000Z</time>
      </trkpt>
      <trkpt lat="44.42053" lon="3.75418">
        <ele>1626.8</ele>
        <time>2026-08-30T10:48:29.000Z</time>
      </trkpt>
      <trkpt lat="44.42068" lon="3.75403">
        <ele>1626.6</ele>
        <time>2026-08-30T10:49:11.000Z</time>
      </trkpt>
      <trkpt lat="44.42085" lon="3.75393">
        <ele>1627.9</ele>
        <time>2026-08-30T10:49:28.000Z</time>
      </trkpt>
      <trkpt lat="44.42102" lon="3.7538">
        <ele>1627.4</ele>
        <time>2026-08-30T10:49:48.000Z</time>
      </trkpt>
      <trkpt lat="44.4212" lon="3.75373">
        <ele>1628</ele>
        <time>2026-08-30T10:50:05.000Z</time>
      </trkpt>
      <trkpt lat="44.42139" lon="3.75369">
        <ele>1629.1</ele>
        <time>2026-08-30T10:50:22.000Z</time>
      </trkpt>
      <trkpt lat="44.42157" lon="3.75363">
        <ele>1630.2</ele>
        <time>2026-08-30T10:50:38.000Z</time>
      </trkpt>
      <trkpt lat="44.42175" lon="3.75355">
        <ele>1630.5</ele>
        <time>2026-08-30T10:54:40.000Z</time>
      </trkpt>
      <trkpt lat="44.42193" lon="3.75351">
        <ele>1631</ele>
        <time>2026-08-30T10:55:00.000Z</time>
      </trkpt>
      <trkpt lat="44.4221" lon="3.75344">
        <ele>1631.1</ele>
        <time>2026-08-30T10:55:17.000Z</time>
      </trkpt>
      <trkpt lat="44.42228" lon="3.75336">
        <ele>1630.9</ele>
        <time>2026-08-30T10:55:34.000Z</time>
      </trkpt>
      <trkpt lat="44.42247" lon="3.75331">
        <ele>1631.3</ele>
        <time>2026-08-30T10:55:50.000Z</time>
      </trkpt>
      <trkpt lat="44.42264" lon="3.75323">
        <ele>1630.9</ele>
        <time>2026-08-30T10:56:06.000Z</time>
      </trkpt>
      <trkpt lat="44.42283" lon="3.75319">
        <ele>1631.3</ele>
        <time>2026-08-30T10:56:23.000Z</time>
      </trkpt>
      <trkpt lat="44.42301" lon="3.75313">
        <ele>1631.8</ele>
        <time>2026-08-30T10:56:40.000Z</time>
      </trkpt>
      <trkpt lat="44.42319" lon="3.75308">
        <ele>1631.8</ele>
        <time>2026-08-30T10:56:55.000Z</time>
      </trkpt>
      <trkpt lat="44.42337" lon="3.753">
        <ele>1631.7</ele>
        <time>2026-08-30T10:57:11.000Z</time>
      </trkpt>
      <trkpt lat="44.42355" lon="3.75292">
        <ele>1632.1</ele>
        <time>2026-08-30T10:57:27.000Z</time>
      </trkpt>
      <trkpt lat="44.42372" lon="3.75282">
        <ele>1632.2</ele>
        <time>2026-08-30T10:57:42.000Z</time>
      </trkpt>
      <trkpt lat="44.4239" lon="3.75273">
        <ele>1632.5</ele>
        <time>2026-08-30T10:57:59.000Z</time>
      </trkpt>
      <trkpt lat="44.42406" lon="3.75261">
        <ele>1632.2</ele>
        <time>2026-08-30T10:58:34.000Z</time>
      </trkpt>
      <trkpt lat="44.42422" lon="3.75248">
        <ele>1632.3</ele>
        <time>2026-08-30T10:58:55.000Z</time>
      </trkpt>
      <trkpt lat="44.42438" lon="3.75234">
        <ele>1632.4</ele>
        <time>2026-08-30T10:59:10.000Z</time>
      </trkpt>
      <trkpt lat="44.42453" lon="3.75219">
        <ele>1632.5</ele>
        <time>2026-08-30T10:59:27.000Z</time>
      </trkpt>
      <trkpt lat="44.42467" lon="3.752">
        <ele>1632.8</ele>
        <time>2026-08-30T10:59:42.000Z</time>
      </trkpt>
      <trkpt lat="44.42479" lon="3.75181">
        <ele>1633.5</ele>
        <time>2026-08-30T10:59:57.000Z</time>
      </trkpt>
      <trkpt lat="44.42492" lon="3.75162">
        <ele>1634.4</ele>
        <time>2026-08-30T11:00:14.000Z</time>
      </trkpt>
      <trkpt lat="44.425" lon="3.75139">
        <ele>1635</ele>
        <time>2026-08-30T11:04:30.000Z</time>
      </trkpt>
      <trkpt lat="44.42495" lon="3.75114">
        <ele>1635.5</ele>
        <time>2026-08-30T11:04:55.000Z</time>
      </trkpt>
      <trkpt lat="44.42488" lon="3.7509">
        <ele>1636</ele>
        <time>2026-08-30T11:05:13.000Z</time>
      </trkpt>
      <trkpt lat="44.42481" lon="3.75067">
        <ele>1637</ele>
        <time>2026-08-30T11:05:31.000Z</time>
      </trkpt>
      <trkpt lat="44.42472" lon="3.75044">
        <ele>1638.2</ele>
        <time>2026-08-30T11:05:48.000Z</time>
      </trkpt>
      <trkpt lat="44.42463" lon="3.75022">
        <ele>1639.1</ele>
        <time>2026-08-30T11:06:05.000Z</time>
      </trkpt>
      <trkpt lat="44.42454" lon="3.74999">
        <ele>1640.5</ele>
        <time>2026-08-30T11:06:20.000Z</time>
      </trkpt>
      <trkpt lat="44.42445" lon="3.74975">
        <ele>1641.9</ele>
        <time>2026-08-30T11:06:35.000Z</time>
      </trkpt>
      <trkpt lat="44.42436" lon="3.74952">
        <ele>1642.4</ele>
        <time>2026-08-30T11:06:53.000Z</time>
      </trkpt>
      <trkpt lat="44.42429" lon="3.74929">
        <ele>1643.4</ele>
        <time>2026-08-30T11:07:07.000Z</time>
      </trkpt>
      <trkpt lat="44.42423" lon="3.74903">
        <ele>1644.3</ele>
        <time>2026-08-30T11:07:22.000Z</time>
      </trkpt>
      <trkpt lat="44.42417" lon="3.74879">
        <ele>1644.8</ele>
        <time>2026-08-30T11:07:36.000Z</time>
      </trkpt>
      <trkpt lat="44.42415" lon="3.74853">
        <ele>1645.8</ele>
        <time>2026-08-30T11:08:44.000Z</time>
      </trkpt>
      <trkpt lat="44.42411" lon="3.74828">
        <ele>1645.9</ele>
        <time>2026-08-30T11:09:10.000Z</time>
      </trkpt>
      <trkpt lat="44.42412" lon="3.74803">
        <ele>1647.8</ele>
        <time>2026-08-30T11:09:25.000Z</time>
      </trkpt>
      <trkpt lat="44.42413" lon="3.74777">
        <ele>1648.8</ele>
        <time>2026-08-30T11:09:41.000Z</time>
      </trkpt>
      <trkpt lat="44.42417" lon="3.74752">
        <ele>1651.1</ele>
        <time>2026-08-30T11:09:59.000Z</time>
      </trkpt>
      <trkpt lat="44.42422" lon="3.74725">
        <ele>1651.6</ele>
        <time>2026-08-30T11:10:16.000Z</time>
      </trkpt>
      <trkpt lat="44.42426" lon="3.747">
        <ele>1651.9</ele>
        <time>2026-08-30T11:10:32.000Z</time>
      </trkpt>
      <trkpt lat="44.42433" lon="3.74675">
        <ele>1652.7</ele>
        <time>2026-08-30T11:10:48.000Z</time>
      </trkpt>
      <trkpt lat="44.4244" lon="3.7465">
        <ele>1653.3</ele>
        <time>2026-08-30T11:11:51.000Z</time>
      </trkpt>
      <trkpt lat="44.42447" lon="3.74627">
        <ele>1654.1</ele>
        <time>2026-08-30T11:12:08.000Z</time>
      </trkpt>
      <trkpt lat="44.42451" lon="3.74601">
        <ele>1654.1</ele>
        <time>2026-08-30T11:12:27.000Z</time>
      </trkpt>
      <trkpt lat="44.42457" lon="3.74577">
        <ele>1654.4</ele>
        <time>2026-08-30T11:12:47.000Z</time>
      </trkpt>
      <trkpt lat="44.42463" lon="3.74552">
        <ele>1654.9</ele>
        <time>2026-08-30T11:13:04.000Z</time>
      </trkpt>
      <trkpt lat="44.4247" lon="3.74528">
        <ele>1654.7</ele>
        <time>2026-08-30T11:13:19.000Z</time>
      </trkpt>
      <trkpt lat="44.42477" lon="3.74503">
        <ele>1655.8</ele>
        <time>2026-08-30T11:13:36.000Z</time>
      </trkpt>
      <trkpt lat="44.42485" lon="3.7448">
        <ele>1656.9</ele>
        <time>2026-08-30T11:13:58.000Z</time>
      </trkpt>
      <trkpt lat="44.4249" lon="3.74454">
        <ele>1657.9</ele>
        <time>2026-08-30T11:14:14.000Z</time>
      </trkpt>
      <trkpt lat="44.42492" lon="3.74429">
        <ele>1658.3</ele>
        <time>2026-08-30T11:14:29.000Z</time>
      </trkpt>
      <trkpt lat="44.42492" lon="3.74402">
        <ele>1659</ele>
        <time>2026-08-30T11:14:44.000Z</time>
      </trkpt>
      <trkpt lat="44.42485" lon="3.74377">
        <ele>1659.1</ele>
        <time>2026-08-30T11:15:39.000Z</time>
      </trkpt>
      <trkpt lat="44.42476" lon="3.74355">
        <ele>1659.9</ele>
        <time>2026-08-30T11:15:55.000Z</time>
      </trkpt>
      <trkpt lat="44.42461" lon="3.74339">
        <ele>1659.2</ele>
        <time>2026-08-30T11:16:11.000Z</time>
      </trkpt>
      <trkpt lat="44.42445" lon="3.74326">
        <ele>1659.1</ele>
        <time>2026-08-30T11:16:27.000Z</time>
      </trkpt>
      <trkpt lat="44.42427" lon="3.74318">
        <ele>1659.1</ele>
        <time>2026-08-30T11:16:42.000Z</time>
      </trkpt>
      <trkpt lat="44.42409" lon="3.7431">
        <ele>1659.1</ele>
        <time>2026-08-30T11:16:58.000Z</time>
      </trkpt>
      <trkpt lat="44.42392" lon="3.74302">
        <ele>1659.5</ele>
        <time>2026-08-30T11:17:12.000Z</time>
      </trkpt>
      <trkpt lat="44.42374" lon="3.74295">
        <ele>1659.6</ele>
        <time>2026-08-30T11:17:37.000Z</time>
      </trkpt>
      <trkpt lat="44.42356" lon="3.7429">
        <ele>1659.7</ele>
        <time>2026-08-30T11:17:53.000Z</time>
      </trkpt>
      <trkpt lat="44.42337" lon="3.74286">
        <ele>1660.2</ele>
        <time>2026-08-30T11:18:07.000Z</time>
      </trkpt>
      <trkpt lat="44.42318" lon="3.74286">
        <ele>1660.1</ele>
        <time>2026-08-30T11:18:22.000Z</time>
      </trkpt>
      <trkpt lat="44.42299" lon="3.74285">
        <ele>1660.2</ele>
        <time>2026-08-30T11:18:38.000Z</time>
      </trkpt>
      <trkpt lat="44.42281" lon="3.74287">
        <ele>1659.7</ele>
        <time>2026-08-30T11:18:52.000Z</time>
      </trkpt>
      <trkpt lat="44.42262" lon="3.7429">
        <ele>1659</ele>
        <time>2026-08-30T11:19:06.000Z</time>
      </trkpt>
      <trkpt lat="44.42244" lon="3.74289">
        <ele>1658.9</ele>
        <time>2026-08-30T11:19:21.000Z</time>
      </trkpt>
      <trkpt lat="44.42225" lon="3.74285">
        <ele>1659.4</ele>
        <time>2026-08-30T11:19:36.000Z</time>
      </trkpt>
      <trkpt lat="44.42207" lon="3.74285">
        <ele>1658.9</ele>
        <time>2026-08-30T11:19:50.000Z</time>
      </trkpt>
      <trkpt lat="44.42189" lon="3.74278">
        <ele>1658.8</ele>
        <time>2026-08-30T11:20:11.000Z</time>
      </trkpt>
      <trkpt lat="44.4217" lon="3.74271">
        <ele>1658.4</ele>
        <time>2026-08-30T11:20:56.000Z</time>
      </trkpt>
      <trkpt lat="44.42151" lon="3.74264">
        <ele>1657.7</ele>
        <time>2026-08-30T11:21:12.000Z</time>
      </trkpt>
      <trkpt lat="44.42136" lon="3.7425">
        <ele>1656.8</ele>
        <time>2026-08-30T11:21:27.000Z</time>
      </trkpt>
      <trkpt lat="44.42137" lon="3.74223">
        <ele>1656.9</ele>
        <time>2026-08-30T11:21:44.000Z</time>
      </trkpt>
      <trkpt lat="44.42128" lon="3.74201">
        <ele>1656.2</ele>
        <time>2026-08-30T11:23:06.000Z</time>
      </trkpt>
      <trkpt lat="44.42146" lon="3.74199">
        <ele>1657.3</ele>
        <time>2026-08-30T11:24:22.000Z</time>
      </trkpt>
      <trkpt lat="44.4216" lon="3.74182">
        <ele>1657.3</ele>
        <time>2026-08-30T11:24:38.000Z</time>
      </trkpt>
      <trkpt lat="44.42174" lon="3.74166">
        <ele>1657.5</ele>
        <time>2026-08-30T11:24:53.000Z</time>
      </trkpt>
      <trkpt lat="44.42188" lon="3.74149">
        <ele>1657.9</ele>
        <time>2026-08-30T11:25:08.000Z</time>
      </trkpt>
      <trkpt lat="44.42202" lon="3.74132">
        <ele>1658.1</ele>
        <time>2026-08-30T11:25:22.000Z</time>
      </trkpt>
      <trkpt lat="44.42215" lon="3.74113">
        <ele>1658.3</ele>
        <time>2026-08-30T11:25:37.000Z</time>
      </trkpt>
      <trkpt lat="44.42224" lon="3.7409">
        <ele>1658.5</ele>
        <time>2026-08-30T11:25:52.000Z</time>
      </trkpt>
      <trkpt lat="44.4223" lon="3.74065">
        <ele>1658.4</ele>
        <time>2026-08-30T11:26:58.000Z</time>
      </trkpt>
      <trkpt lat="44.42239" lon="3.74043">
        <ele>1658.9</ele>
        <time>2026-08-30T11:27:14.000Z</time>
      </trkpt>
      <trkpt lat="44.42246" lon="3.74018">
        <ele>1659.3</ele>
        <time>2026-08-30T11:27:29.000Z</time>
      </trkpt>
      <trkpt lat="44.42251" lon="3.73993">
        <ele>1660.2</ele>
        <time>2026-08-30T11:27:44.000Z</time>
      </trkpt>
      <trkpt lat="44.42256" lon="3.73967">
        <ele>1660.8</ele>
        <time>2026-08-30T11:27:59.000Z</time>
      </trkpt>
      <trkpt lat="44.42259" lon="3.73942">
        <ele>1661.3</ele>
        <time>2026-08-30T11:28:14.000Z</time>
      </trkpt>
      <trkpt lat="44.42264" lon="3.73917">
        <ele>1662</ele>
        <time>2026-08-30T11:28:28.000Z</time>
      </trkpt>
      <trkpt lat="44.42267" lon="3.73892">
        <ele>1662.1</ele>
        <time>2026-08-30T11:28:44.000Z</time>
      </trkpt>
      <trkpt lat="44.42284" lon="3.73882">
        <ele>1665.3</ele>
        <time>2026-08-30T11:30:15.000Z</time>
      </trkpt>
      <trkpt lat="44.42303" lon="3.73882">
        <ele>1668.5</ele>
        <time>2026-08-30T11:30:33.000Z</time>
      </trkpt>
      <trkpt lat="44.42322" lon="3.73878">
        <ele>1671.5</ele>
        <time>2026-08-30T11:30:50.000Z</time>
      </trkpt>
      <trkpt lat="44.4234" lon="3.73877">
        <ele>1674.3</ele>
        <time>2026-08-30T11:31:06.000Z</time>
      </trkpt>
      <trkpt lat="44.42358" lon="3.73872">
        <ele>1676.6</ele>
        <time>2026-08-30T11:31:22.000Z</time>
      </trkpt>
      <trkpt lat="44.42376" lon="3.73871">
        <ele>1679.2</ele>
        <time>2026-08-30T11:31:42.000Z</time>
      </trkpt>
      <trkpt lat="44.42395" lon="3.73871">
        <ele>1681.9</ele>
        <time>2026-08-30T11:31:58.000Z</time>
      </trkpt>
      <trkpt lat="44.42414" lon="3.73873">
        <ele>1684.6</ele>
        <time>2026-08-30T11:32:13.000Z</time>
      </trkpt>
      <trkpt lat="44.42433" lon="3.73874">
        <ele>1686.7</ele>
        <time>2026-08-30T11:36:45.000Z</time>
      </trkpt>
      <trkpt lat="44.42451" lon="3.73877">
        <ele>1688.7</ele>
        <time>2026-08-30T11:37:02.000Z</time>
      </trkpt>
      <trkpt lat="44.42468" lon="3.73882">
        <ele>1690.6</ele>
        <time>2026-08-30T11:37:17.000Z</time>
      </trkpt>
      <trkpt lat="44.42486" lon="3.73886">
        <ele>1692</ele>
        <time>2026-08-30T11:37:32.000Z</time>
      </trkpt>
      <trkpt lat="44.42505" lon="3.73891">
        <ele>1693.6</ele>
        <time>2026-08-30T11:37:48.000Z</time>
      </trkpt>
      <trkpt lat="44.42523" lon="3.73896">
        <ele>1695.5</ele>
        <time>2026-08-30T11:38:06.000Z</time>
      </trkpt>
      <trkpt lat="44.42541" lon="3.73901">
        <ele>1696.9</ele>
        <time>2026-08-30T11:38:21.000Z</time>
      </trkpt>
      <trkpt lat="44.42559" lon="3.73906">
        <ele>1698.1</ele>
        <time>2026-08-30T11:38:36.000Z</time>
      </trkpt>
      <trkpt lat="44.42577" lon="3.7391">
        <ele>1698.8</ele>
        <time>2026-08-30T11:38:52.000Z</time>
      </trkpt>
      <trkpt lat="44.42595" lon="3.73917">
        <ele>1699</ele>
        <time>2026-08-30T11:39:10.000Z</time>
      </trkpt>
      <trkpt lat="44.42613" lon="3.73924">
        <ele>1699</ele>
        <time>2026-08-30T11:39:30.000Z</time>
      </trkpt>
      <trkpt lat="44.4263" lon="3.73917">
        <ele>1699</ele>
        <time>2026-08-30T11:40:20.000Z</time>
      </trkpt>
      <trkpt lat="44.42616" lon="3.73933">
        <ele>1698.9</ele>
        <time>2026-08-30T11:48:14.000Z</time>
      </trkpt>
      <trkpt lat="44.42608" lon="3.73957">
        <ele>1698.6</ele>
        <time>2026-08-30T11:48:36.000Z</time>
      </trkpt>
      <trkpt lat="44.42607" lon="3.73982">
        <ele>1697.7</ele>
        <time>2026-08-30T11:51:11.000Z</time>
      </trkpt>
      <trkpt lat="44.42593" lon="3.73966">
        <ele>1698.7</ele>
        <time>2026-08-30T11:52:48.000Z</time>
      </trkpt>
      <trkpt lat="44.42608" lon="3.73979">
        <ele>1697.9</ele>
        <time>2026-08-30T11:56:51.000Z</time>
      </trkpt>
      <trkpt lat="44.42618" lon="3.74">
        <ele>1696.7</ele>
        <time>2026-08-30T11:57:10.000Z</time>
      </trkpt>
      <trkpt lat="44.42619" lon="3.74025">
        <ele>1695.8</ele>
        <time>2026-08-30T11:57:28.000Z</time>
      </trkpt>
      <trkpt lat="44.42627" lon="3.74049">
        <ele>1693.9</ele>
        <time>2026-08-30T11:57:47.000Z</time>
      </trkpt>
      <trkpt lat="44.42633" lon="3.74074">
        <ele>1691.9</ele>
        <time>2026-08-30T11:58:17.000Z</time>
      </trkpt>
      <trkpt lat="44.42637" lon="3.74099">
        <ele>1689.4</ele>
        <time>2026-08-30T11:58:36.000Z</time>
      </trkpt>
      <trkpt lat="44.4264" lon="3.74124">
        <ele>1687</ele>
        <time>2026-08-30T11:58:55.000Z</time>
      </trkpt>
      <trkpt lat="44.42645" lon="3.74148">
        <ele>1685.1</ele>
        <time>2026-08-30T11:59:19.000Z</time>
      </trkpt>
      <trkpt lat="44.42649" lon="3.74173">
        <ele>1683.2</ele>
        <time>2026-08-30T11:59:43.000Z</time>
      </trkpt>
      <trkpt lat="44.42654" lon="3.74198">
        <ele>1681.3</ele>
        <time>2026-08-30T12:00:01.000Z</time>
      </trkpt>
      <trkpt lat="44.42659" lon="3.74223">
        <ele>1680</ele>
        <time>2026-08-30T12:00:17.000Z</time>
      </trkpt>
      <trkpt lat="44.42663" lon="3.74249">
        <ele>1678.1</ele>
        <time>2026-08-30T12:00:33.000Z</time>
      </trkpt>
      <trkpt lat="44.42665" lon="3.74275">
        <ele>1677.9</ele>
        <time>2026-08-30T12:00:48.000Z</time>
      </trkpt>
      <trkpt lat="44.42671" lon="3.743">
        <ele>1677.2</ele>
        <time>2026-08-30T12:01:04.000Z</time>
      </trkpt>
      <trkpt lat="44.42679" lon="3.74324">
        <ele>1677.3</ele>
        <time>2026-08-30T12:01:22.000Z</time>
      </trkpt>
      <trkpt lat="44.42682" lon="3.74349">
        <ele>1677.8</ele>
        <time>2026-08-30T12:01:37.000Z</time>
      </trkpt>
      <trkpt lat="44.42688" lon="3.74373">
        <ele>1678.3</ele>
        <time>2026-08-30T12:02:10.000Z</time>
      </trkpt>
      <trkpt lat="44.42693" lon="3.74398">
        <ele>1679.6</ele>
        <time>2026-08-30T12:02:28.000Z</time>
      </trkpt>
      <trkpt lat="44.42702" lon="3.74421">
        <ele>1681.4</ele>
        <time>2026-08-30T12:02:44.000Z</time>
      </trkpt>
      <trkpt lat="44.42709" lon="3.74445">
        <ele>1682.5</ele>
        <time>2026-08-30T12:03:00.000Z</time>
      </trkpt>
      <trkpt lat="44.42716" lon="3.74469">
        <ele>1683.6</ele>
        <time>2026-08-30T12:03:15.000Z</time>
      </trkpt>
      <trkpt lat="44.42727" lon="3.74488">
        <ele>1685.2</ele>
        <time>2026-08-30T12:03:32.000Z</time>
      </trkpt>
      <trkpt lat="44.42739" lon="3.74508">
        <ele>1686</ele>
        <time>2026-08-30T12:03:48.000Z</time>
      </trkpt>
      <trkpt lat="44.42739" lon="3.74534">
        <ele>1685.5</ele>
        <time>2026-08-30T12:27:56.000Z</time>
      </trkpt>
      <trkpt lat="44.42726" lon="3.74553">
        <ele>1684.8</ele>
        <time>2026-08-30T12:28:13.000Z</time>
      </trkpt>
      <trkpt lat="44.42711" lon="3.74568">
        <ele>1683.6</ele>
        <time>2026-08-30T12:28:32.000Z</time>
      </trkpt>
      <trkpt lat="44.42698" lon="3.74585">
        <ele>1682.7</ele>
        <time>2026-08-30T12:28:54.000Z</time>
      </trkpt>
      <trkpt lat="44.42688" lon="3.74607">
        <ele>1680.6</ele>
        <time>2026-08-30T12:29:32.000Z</time>
      </trkpt>
      <trkpt lat="44.42684" lon="3.74632">
        <ele>1678.4</ele>
        <time>2026-08-30T12:29:52.000Z</time>
      </trkpt>
      <trkpt lat="44.4268" lon="3.74657">
        <ele>1676.8</ele>
        <time>2026-08-30T12:30:35.000Z</time>
      </trkpt>
      <trkpt lat="44.42676" lon="3.74683">
        <ele>1675.2</ele>
        <time>2026-08-30T12:30:52.000Z</time>
      </trkpt>
      <trkpt lat="44.42672" lon="3.74708">
        <ele>1673.7</ele>
        <time>2026-08-30T12:31:10.000Z</time>
      </trkpt>
      <trkpt lat="44.42671" lon="3.74733">
        <ele>1671.8</ele>
        <time>2026-08-30T12:31:34.000Z</time>
      </trkpt>
      <trkpt lat="44.42668" lon="3.7476">
        <ele>1670.1</ele>
        <time>2026-08-30T12:32:02.000Z</time>
      </trkpt>
      <trkpt lat="44.42665" lon="3.74786">
        <ele>1668.5</ele>
        <time>2026-08-30T12:32:20.000Z</time>
      </trkpt>
      <trkpt lat="44.42662" lon="3.74812">
        <ele>1666.7</ele>
        <time>2026-08-30T12:32:46.000Z</time>
      </trkpt>
      <trkpt lat="44.42661" lon="3.74838">
        <ele>1664.1</ele>
        <time>2026-08-30T12:33:04.000Z</time>
      </trkpt>
      <trkpt lat="44.42657" lon="3.74863">
        <ele>1662.2</ele>
        <time>2026-08-30T12:33:20.000Z</time>
      </trkpt>
      <trkpt lat="44.42658" lon="3.74889">
        <ele>1660.3</ele>
        <time>2026-08-30T12:33:55.000Z</time>
      </trkpt>
      <trkpt lat="44.42655" lon="3.74915">
        <ele>1657.5</ele>
        <time>2026-08-30T12:34:18.000Z</time>
      </trkpt>
      <trkpt lat="44.42654" lon="3.74941">
        <ele>1654.8</ele>
        <time>2026-08-30T12:34:33.000Z</time>
      </trkpt>
      <trkpt lat="44.42652" lon="3.74967">
        <ele>1652.5</ele>
        <time>2026-08-30T12:34:54.000Z</time>
      </trkpt>
      <trkpt lat="44.42652" lon="3.74992">
        <ele>1649.6</ele>
        <time>2026-08-30T12:35:23.000Z</time>
      </trkpt>
      <trkpt lat="44.4265" lon="3.75019">
        <ele>1646.6</ele>
        <time>2026-08-30T12:35:39.000Z</time>
      </trkpt>
      <trkpt lat="44.42652" lon="3.75044">
        <ele>1643.8</ele>
        <time>2026-08-30T12:35:59.000Z</time>
      </trkpt>
      <trkpt lat="44.4265" lon="3.75069">
        <ele>1641.4</ele>
        <time>2026-08-30T12:36:16.000Z</time>
      </trkpt>
      <trkpt lat="44.42643" lon="3.75093">
        <ele>1639.7</ele>
        <time>2026-08-30T12:36:31.000Z</time>
      </trkpt>
      <trkpt lat="44.42642" lon="3.75118">
        <ele>1637.2</ele>
        <time>2026-08-30T12:36:46.000Z</time>
      </trkpt>
      <trkpt lat="44.4264" lon="3.75144">
        <ele>1635.6</ele>
        <time>2026-08-30T12:37:24.000Z</time>
      </trkpt>
      <trkpt lat="44.42624" lon="3.75156">
        <ele>1635.3</ele>
        <time>2026-08-30T12:38:11.000Z</time>
      </trkpt>
      <trkpt lat="44.42611" lon="3.75174">
        <ele>1634.7</ele>
        <time>2026-08-30T12:38:33.000Z</time>
      </trkpt>
      <trkpt lat="44.42614" lon="3.752">
        <ele>1633.9</ele>
        <time>2026-08-30T12:38:56.000Z</time>
      </trkpt>
      <trkpt lat="44.4262" lon="3.75224">
        <ele>1633.4</ele>
        <time>2026-08-30T12:39:13.000Z</time>
      </trkpt>
      <trkpt lat="44.42632" lon="3.75243">
        <ele>1632.5</ele>
        <time>2026-08-30T12:39:28.000Z</time>
      </trkpt>
      <trkpt lat="44.42644" lon="3.75263">
        <ele>1632.1</ele>
        <time>2026-08-30T12:39:43.000Z</time>
      </trkpt>
      <trkpt lat="44.4265" lon="3.75287">
        <ele>1632.4</ele>
        <time>2026-08-30T12:39:58.000Z</time>
      </trkpt>
      <trkpt lat="44.42658" lon="3.75311">
        <ele>1632.1</ele>
        <time>2026-08-30T12:40:31.000Z</time>
      </trkpt>
      <trkpt lat="44.42666" lon="3.75334">
        <ele>1632.1</ele>
        <time>2026-08-30T12:40:47.000Z</time>
      </trkpt>
      <trkpt lat="44.42675" lon="3.75357">
        <ele>1631.4</ele>
        <time>2026-08-30T12:41:04.000Z</time>
      </trkpt>
      <trkpt lat="44.42682" lon="3.75381">
        <ele>1630.6</ele>
        <time>2026-08-30T12:41:20.000Z</time>
      </trkpt>
      <trkpt lat="44.42687" lon="3.75407">
        <ele>1630.1</ele>
        <time>2026-08-30T12:41:44.000Z</time>
      </trkpt>
      <trkpt lat="44.4269" lon="3.75432">
        <ele>1630.2</ele>
        <time>2026-08-30T12:41:59.000Z</time>
      </trkpt>
      <trkpt lat="44.4269" lon="3.75457">
        <ele>1630.6</ele>
        <time>2026-08-30T12:42:15.000Z</time>
      </trkpt>
      <trkpt lat="44.42693" lon="3.75484">
        <ele>1630.2</ele>
        <time>2026-08-30T12:42:31.000Z</time>
      </trkpt>
      <trkpt lat="44.42696" lon="3.75509">
        <ele>1629.7</ele>
        <time>2026-08-30T12:42:46.000Z</time>
      </trkpt>
      <trkpt lat="44.42698" lon="3.75534">
        <ele>1629.2</ele>
        <time>2026-08-30T12:43:02.000Z</time>
      </trkpt>
      <trkpt lat="44.427" lon="3.7556">
        <ele>1628.1</ele>
        <time>2026-08-30T12:43:21.000Z</time>
      </trkpt>
      <trkpt lat="44.427" lon="3.75587">
        <ele>1627.4</ele>
        <time>2026-08-30T12:43:38.000Z</time>
      </trkpt>
      <trkpt lat="44.42704" lon="3.75613">
        <ele>1626.9</ele>
        <time>2026-08-30T12:43:55.000Z</time>
      </trkpt>
      <trkpt lat="44.42703" lon="3.7564">
        <ele>1626</ele>
        <time>2026-08-30T12:44:10.000Z</time>
      </trkpt>
      <trkpt lat="44.42706" lon="3.75666">
        <ele>1624.8</ele>
        <time>2026-08-30T12:44:37.000Z</time>
      </trkpt>
      <trkpt lat="44.42706" lon="3.75692">
        <ele>1623.3</ele>
        <time>2026-08-30T12:44:53.000Z</time>
      </trkpt>
      <trkpt lat="44.42704" lon="3.75717">
        <ele>1621.7</ele>
        <time>2026-08-30T12:45:22.000Z</time>
      </trkpt>
      <trkpt lat="44.42698" lon="3.75743">
        <ele>1620.3</ele>
        <time>2026-08-30T12:45:40.000Z</time>
      </trkpt>
      <trkpt lat="44.42689" lon="3.75766">
        <ele>1618.4</ele>
        <time>2026-08-30T12:47:18.000Z</time>
      </trkpt>
      <trkpt lat="44.42678" lon="3.75789">
        <ele>1616.8</ele>
        <time>2026-08-30T12:47:34.000Z</time>
      </trkpt>
      <trkpt lat="44.42667" lon="3.75809">
        <ele>1615.6</ele>
        <time>2026-08-30T12:47:48.000Z</time>
      </trkpt>
      <trkpt lat="44.42674" lon="3.75833">
        <ele>1612.5</ele>
        <time>2026-08-30T12:48:09.000Z</time>
      </trkpt>
      <trkpt lat="44.42678" lon="3.75859">
        <ele>1609.3</ele>
        <time>2026-08-30T12:53:35.000Z</time>
      </trkpt>
      <trkpt lat="44.42682" lon="3.75885">
        <ele>1606.8</ele>
        <time>2026-08-30T12:53:58.000Z</time>
      </trkpt>
      <trkpt lat="44.42673" lon="3.75908">
        <ele>1604.1</ele>
        <time>2026-08-30T12:54:17.000Z</time>
      </trkpt>
      <trkpt lat="44.42657" lon="3.75923">
        <ele>1601.9</ele>
        <time>2026-08-30T12:54:36.000Z</time>
      </trkpt>
      <trkpt lat="44.4264" lon="3.75933">
        <ele>1600</ele>
        <time>2026-08-30T12:55:06.000Z</time>
      </trkpt>
      <trkpt lat="44.42627" lon="3.7595">
        <ele>1598.1</ele>
        <time>2026-08-30T12:55:22.000Z</time>
      </trkpt>
      <trkpt lat="44.42613" lon="3.75967">
        <ele>1596.5</ele>
        <time>2026-08-30T12:55:38.000Z</time>
      </trkpt>
      <trkpt lat="44.42598" lon="3.75984">
        <ele>1595.1</ele>
        <time>2026-08-30T12:55:57.000Z</time>
      </trkpt>
      <trkpt lat="44.42584" lon="3.76002">
        <ele>1593.5</ele>
        <time>2026-08-30T12:56:13.000Z</time>
      </trkpt>
      <trkpt lat="44.42573" lon="3.76021">
        <ele>1590.8</ele>
        <time>2026-08-30T12:56:29.000Z</time>
      </trkpt>
      <trkpt lat="44.42558" lon="3.76037">
        <ele>1589.7</ele>
        <time>2026-08-30T12:56:54.000Z</time>
      </trkpt>
      <trkpt lat="44.42542" lon="3.7605">
        <ele>1588.8</ele>
        <time>2026-08-30T12:57:15.000Z</time>
      </trkpt>
      <trkpt lat="44.42527" lon="3.76065">
        <ele>1588.4</ele>
        <time>2026-08-30T12:57:30.000Z</time>
      </trkpt>
      <trkpt lat="44.42516" lon="3.76086">
        <ele>1586.3</ele>
        <time>2026-08-30T12:58:04.000Z</time>
      </trkpt>
      <trkpt lat="44.42508" lon="3.76109">
        <ele>1584.3</ele>
        <time>2026-08-30T12:58:23.000Z</time>
      </trkpt>
      <trkpt lat="44.42516" lon="3.76132">
        <ele>1581.4</ele>
        <time>2026-08-30T12:59:04.000Z</time>
      </trkpt>
      <trkpt lat="44.42519" lon="3.76159">
        <ele>1578.5</ele>
        <time>2026-08-30T12:59:43.000Z</time>
      </trkpt>
      <trkpt lat="44.42524" lon="3.76184">
        <ele>1576</ele>
        <time>2026-08-30T13:00:02.000Z</time>
      </trkpt>
      <trkpt lat="44.4253" lon="3.76208">
        <ele>1573.4</ele>
        <time>2026-08-30T13:00:37.000Z</time>
      </trkpt>
      <trkpt lat="44.42534" lon="3.76233">
        <ele>1570.7</ele>
        <time>2026-08-30T13:00:54.000Z</time>
      </trkpt>
      <trkpt lat="44.42541" lon="3.76257">
        <ele>1567.9</ele>
        <time>2026-08-30T13:01:12.000Z</time>
      </trkpt>
      <trkpt lat="44.4255" lon="3.76279">
        <ele>1564.5</ele>
        <time>2026-08-30T13:01:30.000Z</time>
      </trkpt>
      <trkpt lat="44.42555" lon="3.76304">
        <ele>1562.1</ele>
        <time>2026-08-30T13:01:47.000Z</time>
      </trkpt>
      <trkpt lat="44.42561" lon="3.76328">
        <ele>1559.2</ele>
        <time>2026-08-30T13:02:07.000Z</time>
      </trkpt>
      <trkpt lat="44.42567" lon="3.76353">
        <ele>1556.1</ele>
        <time>2026-08-30T13:02:25.000Z</time>
      </trkpt>
      <trkpt lat="44.42559" lon="3.76377">
        <ele>1554</ele>
        <time>2026-08-30T13:02:42.000Z</time>
      </trkpt>
      <trkpt lat="44.4255" lon="3.764">
        <ele>1551.9</ele>
        <time>2026-08-30T13:02:56.000Z</time>
      </trkpt>
      <trkpt lat="44.42539" lon="3.76421">
        <ele>1550.2</ele>
        <time>2026-08-30T13:03:14.000Z</time>
      </trkpt>
      <trkpt lat="44.42531" lon="3.76446">
        <ele>1547.7</ele>
        <time>2026-08-30T13:03:29.000Z</time>
      </trkpt>
      <trkpt lat="44.42527" lon="3.76471">
        <ele>1546.1</ele>
        <time>2026-08-30T13:03:56.000Z</time>
      </trkpt>
      <trkpt lat="44.42521" lon="3.76494">
        <ele>1543.9</ele>
        <time>2026-08-30T13:04:15.000Z</time>
      </trkpt>
      <trkpt lat="44.42514" lon="3.76518">
        <ele>1540.9</ele>
        <time>2026-08-30T13:04:35.000Z</time>
      </trkpt>
      <trkpt lat="44.42502" lon="3.76538">
        <ele>1538.8</ele>
        <time>2026-08-30T13:05:28.000Z</time>
      </trkpt>
      <trkpt lat="44.42485" lon="3.76547">
        <ele>1539.4</ele>
        <time>2026-08-30T13:05:43.000Z</time>
      </trkpt>
      <trkpt lat="44.42474" lon="3.76568">
        <ele>1540.8</ele>
        <time>2026-08-30T13:06:01.000Z</time>
      </trkpt>
      <trkpt lat="44.42469" lon="3.76593">
        <ele>1541.4</ele>
        <time>2026-08-30T13:06:19.000Z</time>
      </trkpt>
      <trkpt lat="44.42469" lon="3.76621">
        <ele>1541.3</ele>
        <time>2026-08-30T13:06:36.000Z</time>
      </trkpt>
      <trkpt lat="44.42467" lon="3.76646">
        <ele>1541.6</ele>
        <time>2026-08-30T13:06:50.000Z</time>
      </trkpt>
      <trkpt lat="44.42466" lon="3.76671">
        <ele>1541.7</ele>
        <time>2026-08-30T13:07:05.000Z</time>
      </trkpt>
      <trkpt lat="44.42464" lon="3.76697">
        <ele>1541.1</ele>
        <time>2026-08-30T13:07:22.000Z</time>
      </trkpt>
      <trkpt lat="44.42457" lon="3.76721">
        <ele>1541.7</ele>
        <time>2026-08-30T13:07:39.000Z</time>
      </trkpt>
      <trkpt lat="44.42449" lon="3.76744">
        <ele>1541.7</ele>
        <time>2026-08-30T13:07:56.000Z</time>
      </trkpt>
      <trkpt lat="44.42441" lon="3.76768">
        <ele>1542.5</ele>
        <time>2026-08-30T13:08:18.000Z</time>
      </trkpt>
      <trkpt lat="44.4243" lon="3.7679">
        <ele>1542.8</ele>
        <time>2026-08-30T13:08:35.000Z</time>
      </trkpt>
      <trkpt lat="44.42421" lon="3.76812">
        <ele>1542.7</ele>
        <time>2026-08-30T13:08:53.000Z</time>
      </trkpt>
      <trkpt lat="44.42411" lon="3.76835">
        <ele>1543.3</ele>
        <time>2026-08-30T13:09:21.000Z</time>
      </trkpt>
      <trkpt lat="44.424" lon="3.76855">
        <ele>1543.4</ele>
        <time>2026-08-30T13:09:47.000Z</time>
      </trkpt>
    </trkseg>
  </trk>
</gpx>